Wednesday, February 10, 2016

  Over 48,494,314 pages visited!

GMT:
03:29
PACIFIC:
8:29:01 PM
MOUNTAIN:
9:29:01 PM

CENTRAL:
10:29:01 PM

EASTERN:
11:29:01 PM
ATLANTIC:
12:29:01 AM
NEWFOUNDLAND:
12:59:01 AM
 

 


Watches/Warnings
Current Conditions
Radar/Satellite
Lightning Images


Current Weather Conditions For TORONTO PEARSON,ON

 


Light Snow Showers
 

Temperature: -1�C / 30�F
Dew Point: -4�C / 25�F
Humidity: 80 %
Pressure: 998.9 mbs (29.5 inches)
Visibility: 19.3 kms (12 SM)
Wind Direction: SW (220�)
Wind Speed: 7.4 Km/h (4.6 MPH)
Max Wind Gust: No Gusts
Humidex: N/A
WindChill: -4�C
    

Observation Information

Date/Time: Wednesday, February 10, 2016 @ 04:00Z
Local Time:
Metar Coded: CYYZ 100400Z 22004KT 12SM -SHSN BKN016 OVC038 M01/M04 A2947 RMK SC6SC2 SLP989

 

 

                   1997-2016 The Ontario Weather Page